Time;durP1;ratioP1;P1;durP2;ratioP2;P2;SDS_P1;SDS_P2;PMS_P1;PMS_P2;Temp;Humidity;BMP_temperature;BMP_pressure;BME280_temperature;BME280_humidity;BME280_pressure;Samples;Min_cycle;Max_cycle;Signal;HPM_P1;HPM_P2
2021/01/06 00:00:14;;;;;;;21.60;14.40;;;4.30;99.90;;;;;;5073614;28;20021;-86
2021/01/06 00:02:40;;;;;;;20.23;12.52;;;4.30;99.90;;;;;;5047963;28;20495;-86
2021/01/06 00:05:08;;;;;;;23.83;13.45;;;4.30;99.90;;;;;;5047384;28;20025;-86
2021/01/06 00:07:34;;;;;;;21.63;13.85;;;4.30;99.90;;;;;;5050008;28;20032;-86
2021/01/06 00:09:59;;;;;;;21.63;13.38;;;4.20;99.90;;;;;;5072447;28;20463;-86
2021/01/06 00:12:25;;;;;;;21.83;14.07;;;4.30;99.90;;;;;;5071651;28;20086;-87
2021/01/06 00:14:50;;;;;;;20.48;13.60;;;4.30;99.90;;;;;;5073162;28;20090;-86
2021/01/06 00:17:16;;;;;;;19.63;12.50;;;4.20;99.90;;;;;;5073222;28;20034;-86
2021/01/06 00:19:41;;;;;;;20.88;13.35;;;4.20;99.90;;;;;;5071053;28;20020;-86
2021/01/06 00:22:07;;;;;;;19.08;13.00;;;4.20;99.90;;;;;;5051891;28;20025;-86
2021/01/06 00:24:32;;;;;;;18.95;12.77;;;4.20;99.90;;;;;;5070999;28;20051;-86
2021/01/06 00:26:58;;;;;;;22.25;13.65;;;4.20;99.90;;;;;;5073316;28;20032;-86
2021/01/06 00:29:23;;;;;;;26.55;14.93;;;4.20;99.90;;;;;;5052845;28;20043;-86
2021/01/06 00:31:49;;;;;;;19.67;11.80;;;4.10;99.90;;;;;;5053227;28;20017;-86
2021/01/06 00:34:14;;;;;;;17.77;11.50;;;4.10;99.90;;;;;;5053637;28;20021;-86
2021/01/06 00:36:40;;;;;;;18.02;11.82;;;4.20;99.90;;;;;;5052361;28;20017;-86
2021/01/06 00:39:06;;;;;;;17.48;11.07;;;4.20;99.90;;;;;;5054333;28;20021;-86
2021/01/06 00:41:34;;;;;;;17.77;12.15;;;4.20;99.90;;;;;;5054599;28;20054;-85
2021/01/06 00:44:01;;;;;;;19.63;12.95;;;4.20;99.90;;;;;;5072925;28;20476;-86
2021/01/06 00:46:32;;;;;;;19.48;12.25;;;4.20;99.90;;;;;;5045355;28;20021;-86
2021/01/06 00:49:01;;;;;;;17.33;11.85;;;4.20;99.90;;;;;;5052861;28;20028;-86
2021/01/06 00:51:27;;;;;;;17.52;11.70;;;4.20;99.90;;;;;;5069912;28;20086;-86
2021/01/06 00:53:53;;;;;;;17.48;11.60;;;4.20;99.90;;;;;;5071150;28;20488;-86
2021/01/06 00:56:30;;;;;;;17.05;11.82;;;4.20;99.90;;;;;;5053298;28;20028;-86
2021/01/06 00:58:56;;;;;;;19.13;11.65;;;4.20;99.90;;;;;;5041118;28;20073;-86
2021/01/06 01:01:24;;;;;;;20.52;12.82;;;4.20;99.90;;;;;;5072527;28;20028;-86
2021/01/06 01:03:49;;;;;;;18.27;10.82;;;4.10;99.90;;;;;;5047147;28;20021;-86
2021/01/06 01:06:32;;;;;;;20.20;11.85;;;4.10;99.90;;;;;;5068196;28;20107;-85
2021/01/06 01:08:59;;;;;;;15.85;10.63;;;4.20;99.90;;;;;;5051930;28;20024;-86
2021/01/06 01:11:25;;;;;;;20.35;12.52;;;4.20;99.90;;;;;;5050994;28;20025;-86
2021/01/06 01:13:53;;;;;;;20.17;11.77;;;4.10;99.90;;;;;;5069989;28;20017;-86
2021/01/06 01:16:20;;;;;;;18.67;12.48;;;4.10;99.90;;;;;;5047722;28;20094;-86
2021/01/06 01:18:46;;;;;;;22.98;12.90;;;4.10;99.90;;;;;;5053614;28;20016;-87
2021/01/06 01:21:12;;;;;;;18.52;10.13;;;4.10;99.90;;;;;;5049154;28;20025;-86
2021/01/06 01:23:37;;;;;;;21.80;12.88;;;4.10;99.90;;;;;;5054581;28;20042;-86
2021/01/06 01:26:03;;;;;;;21.48;13.00;;;4.10;99.90;;;;;;5068025;28;20500;-86
2021/01/06 01:28:29;;;;;;;17.23;11.98;;;4.10;99.90;;;;;;5049102;28;20028;-85
2021/01/06 01:30:56;;;;;;;17.52;11.98;;;4.10;99.90;;;;;;5054249;28;20078;-86
2021/01/06 01:33:24;;;;;;;21.52;13.32;;;4.10;99.90;;;;;;5072445;28;20020;-86
2021/01/06 01:35:49;;;;;;;21.52;12.18;;;4.10;99.90;;;;;;5070465;28;20016;-86
2021/01/06 01:38:18;;;;;;;19.00;11.60;;;4.10;99.90;;;;;;5051263;28;20025;-85
2021/01/06 01:40:44;;;;;;;22.20;12.98;;;4.10;99.90;;;;;;5047891;28;20027;-87
2021/01/06 01:43:13;;;;;;;20.50;12.23;;;4.10;99.90;;;;;;5048463;28;20089;-86
2021/01/06 01:45:44;;;;;;;21.10;12.77;;;4.10;99.90;;;;;;5048743;28;20108;-85
2021/01/06 01:48:27;;;;;;;19.60;11.55;;;4.10;99.90;;;;;;5049185;28;20021;-85
2021/01/06 01:50:56;;;;;;;19.33;11.70;;;4.10;99.90;;;;;;5048002;28;20050;-86
2021/01/06 01:53:33;;;;;;;21.80;11.68;;;4.10;99.90;;;;;;5087871;28;20505;-86
2021/01/06 01:56:00;;;;;;;19.95;11.65;;;4.20;99.90;;;;;;5090955;28;20447;-86
2021/01/06 01:58:27;;;;;;;18.33;11.15;;;4.20;99.90;;;;;;5086972;28;20536;-86
2021/01/06 02:00:55;;;;;;;17.98;11.98;;;4.20;99.90;;;;;;5084852;28;20052;-86
2021/01/06 02:03:46;;;;;;;18.75;12.13;;;4.20;99.90;;;;;;5084996;28;20016;-86
2021/01/06 02:06:20;;;;;;;20.00;13.30;;;4.20;99.90;;;;;;5079916;28;20048;-86
2021/01/06 02:09:18;;;;;;;18.95;12.35;;;4.20;99.90;;;;;;5083574;28;20017;-86
2021/01/06 02:11:58;;;;;;;21.90;12.80;;;4.10;99.90;;;;;;5087780;28;20027;-86
2021/01/06 02:14:39;;;;;;;18.25;10.98;;;4.10;99.90;;;;;;5085791;28;20024;-86
2021/01/06 02:17:09;;;;;;;19.10;11.70;;;4.10;99.90;;;;;;5094584;28;20387;-86
2021/01/06 02:19:45;;;;;;;23.40;12.05;;;4.10;99.90;;;;;;5095661;28;20024;-86
2021/01/06 02:22:15;;;;;;;21.13;11.45;;;4.10;99.90;;;;;;5094107;28;20020;-86
2021/01/06 02:24:41;;;;;;;19.52;11.02;;;4.10;99.90;;;;;;5088749;28;20383;-86
2021/01/06 02:27:07;;;;;;;21.35;11.60;;;4.10;99.90;;;;;;5089299;28;20031;-86
2021/01/06 02:29:34;;;;;;;17.77;10.45;;;4.10;99.90;;;;;;5095723;28;20472;-86
2021/01/06 02:32:00;;;;;;;19.35;12.25;;;4.10;99.90;;;;;;5095631;28;20051;-86
2021/01/06 02:34:26;;;;;;;17.25;10.65;;;4.10;99.90;;;;;;5091410;28;20078;-86
2021/01/06 02:36:53;;;;;;;18.73;11.85;;;4.10;99.90;;;;;;5081121;28;20024;-86
2021/01/06 02:39:18;;;;;;;20.55;12.18;;;4.10;99.90;;;;;;5088921;28;20023;-86
2021/01/06 02:41:47;;;;;;;19.30;11.75;;;4.10;99.90;;;;;;5087467;28;20025;-86
2021/01/06 02:44:13;;;;;;;17.60;11.57;;;4.00;99.90;;;;;;5094836;28;20020;-86
2021/01/06 02:46:39;;;;;;;16.05;11.15;;;4.00;99.90;;;;;;5088800;28;20072;-86
2021/01/06 02:49:06;;;;;;;15.85;11.20;;;4.00;99.90;;;;;;5088965;28;20024;-86
2021/01/06 02:51:52;;;;;;;19.50;11.35;;;4.00;99.90;;;;;;5087333;28;20040;-85
2021/01/06 02:54:27;;;;;;;16.08;11.23;;;4.00;99.90;;;;;;5092908;28;20472;-85
2021/01/06 02:56:56;;;;;;;18.67;11.85;;;4.00;99.90;;;;;;5084462;28;20033;-86
2021/01/06 02:59:26;;;;;;;16.00;11.85;;;4.00;99.90;;;;;;5087505;28;20020;-86
2021/01/06 03:01:53;;;;;;;17.40;11.88;;;4.00;99.90;;;;;;5088014;28;20027;-86
2021/01/06 03:04:20;;;;;;;16.02;11.27;;;3.90;99.90;;;;;;5093734;28;20118;-86
2021/01/06 03:06:54;;;;;;;14.50;10.70;;;4.00;99.90;;;;;;5087681;28;20288;-86
2021/01/06 03:09:29;;;;;;;17.92;11.98;;;4.00;99.90;;;;;;5078988;28;20016;-86
2021/01/06 03:11:57;;;;;;;18.83;12.27;;;4.00;99.90;;;;;;5088296;28;20111;-85
2021/01/06 03:14:26;;;;;;;17.98;11.90;;;4.00;99.90;;;;;;5092265;28;20016;-86
2021/01/06 03:16:53;;;;;;;15.77;11.35;;;3.90;99.90;;;;;;5094314;28;20073;-86
2021/01/06 03:19:20;;;;;;;18.05;11.73;;;3.90;99.90;;;;;;5084241;28;20032;-87
2021/01/06 03:21:47;;;;;;;16.88;11.00;;;3.90;99.90;;;;;;5095005;28;20024;-86
2021/01/06 03:24:14;;;;;;;18.60;10.20;;;3.90;99.90;;;;;;5087660;28;20048;-86
2021/01/06 03:26:41;;;;;;;18.50;11.23;;;3.90;99.90;;;;;;5093378;28;20024;-86
2021/01/06 03:29:07;;;;;;;16.20;11.38;;;3.80;99.90;;;;;;5094262;28;20020;-86
2021/01/06 03:31:44;;;;;;;17.02;10.90;;;3.90;99.90;;;;;;5084648;28;20024;-86
2021/01/06 03:34:22;;;;;;;18.77;11.23;;;3.90;99.90;;;;;;5092094;28;20061;-86
2021/01/06 03:37:11;;;;;;;16.52;10.77;;;3.80;99.90;;;;;;5079558;28;20051;-86
2021/01/06 03:40:00;;;;;;;19.53;12.27;;;3.90;99.90;;;;;;5085809;28;20509;-86
2021/01/06 03:42:27;;;;;;;19.38;12.27;;;3.80;99.90;;;;;;5089471;28;20500;-86
2021/01/06 03:44:53;;;;;;;19.23;12.50;;;3.80;99.90;;;;;;5094283;28;20032;-86
2021/01/06 03:47:33;;;;;;;17.58;11.35;;;3.80;99.90;;;;;;5094462;28;20099;-86
2021/01/06 03:50:25;;;;;;;16.00;10.90;;;3.80;99.90;;;;;;5082315;28;20483;-86
2021/01/06 03:52:58;;;;;;;16.08;11.30;;;3.80;99.90;;;;;;5092401;28;20107;-86
2021/01/06 03:55:41;;;;;;;19.75;11.52;;;3.80;99.90;;;;;;5083852;28;20383;-86
2021/01/06 03:58:25;;;;;;;16.42;11.98;;;3.80;99.90;;;;;;5092178;28;20066;-86
2021/01/06 04:00:55;;;;;;;16.52;11.43;;;3.80;99.90;;;;;;5086340;28;20024;-87
2021/01/06 04:03:45;;;;;;;18.55;11.50;;;3.80;99.90;;;;;;5084595;28;20184;-86
2021/01/06 04:06:12;;;;;;;20.55;12.35;;;3.80;99.90;;;;;;5076276;28;20467;-85
2021/01/06 04:09:11;;;;;;;16.38;10.75;;;3.80;99.90;;;;;;5082359;28;20472;-86
2021/01/06 04:11:37;;;;;;;16.90;12.03;;;3.80;99.90;;;;;;5084104;28;20036;-86
2021/01/06 04:14:03;;;;;;;19.30;12.60;;;3.80;99.90;;;;;;5084300;28;20096;-86
2021/01/06 04:16:29;;;;;;;16.45;11.38;;;3.80;99.90;;;;;;5091732;28;20024;-86
2021/01/06 04:18:56;;;;;;;18.27;12.18;;;3.80;99.90;;;;;;5085855;28;20419;-86
2021/01/06 04:21:21;;;;;;;18.50;12.50;;;3.80;99.90;;;;;;5086759;28;20020;-86
2021/01/06 04:23:47;;;;;;;18.77;12.30;;;3.80;99.90;;;;;;5085913;28;20027;-86
2021/01/06 04:26:14;;;;;;;20.45;12.90;;;3.80;99.90;;;;;;5089875;28;20035;-86
2021/01/06 04:28:41;;;;;;;16.90;12.23;;;3.80;99.90;;;;;;5086711;28;20020;-86
2021/01/06 04:31:21;;;;;;;18.90;12.85;;;3.80;99.90;;;;;;5085793;28;20031;-86
2021/01/06 04:33:50;;;;;;;18.67;12.10;;;3.90;99.90;;;;;;5090826;28;20024;-86
2021/01/06 04:36:17;;;;;;;21.38;12.57;;;3.80;99.90;;;;;;5079809;28;20045;-86
2021/01/06 04:38:49;;;;;;;16.20;11.25;;;3.80;99.90;;;;;;5093298;28;20054;-86
2021/01/06 04:41:37;;;;;;;17.92;11.43;;;3.80;99.90;;;;;;5089947;28;20067;-86
2021/01/06 04:44:24;;;;;;;17.35;12.13;;;3.80;99.90;;;;;;5076083;28;20489;-87
2021/01/06 04:47:14;;;;;;;17.55;11.90;;;3.80;99.90;;;;;;5090999;28;20016;-86
2021/01/06 04:49:52;;;;;;;;;;;3.80;99.90;;;;;;5081054;28;20418;-86
2021/01/06 04:52:43;;;;;;;18.65;12.02;;;3.70;99.90;;;;;;5088487;28;19962;-86
2021/01/06 04:55:47;;;;;;;18.20;11.85;;;3.70;99.90;;;;;;5087833;28;20451;-86
2021/01/06 04:58:37;;;;;;;20.70;13.35;;;3.70;99.90;;;;;;5082831;28;20023;-86
2021/01/06 05:01:36;;;;;;;18.85;12.27;;;3.70;99.90;;;;;;5073145;28;20078;-86
2021/01/06 05:04:28;;;;;;;18.20;11.45;;;3.70;99.90;;;;;;5091038;28;20479;-86
2021/01/06 05:06:59;;;;;;;18.27;11.30;;;3.70;99.90;;;;;;5083129;28;20024;-86
2021/01/06 05:09:55;;;;;;;17.95;11.77;;;3.70;99.90;;;;;;5086714;28;20028;-86
2021/01/06 05:12:36;;;;;;;15.32;10.85;;;3.70;99.90;;;;;;5060117;28;20032;-85
2021/01/06 05:15:13;;;;;;;18.02;11.32;;;3.70;99.90;;;;;;5092680;28;20016;-85
2021/01/06 05:17:40;;;;;;;17.20;11.13;;;3.70;99.90;;;;;;5091098;28;20055;-85
2021/01/06 05:20:08;;;;;;;18.80;13.32;;;3.70;99.90;;;;;;5083325;28;20031;-86
2021/01/06 05:22:34;;;;;;;17.73;11.55;;;3.80;99.90;;;;;;5085249;28;20025;-86
2021/01/06 05:25:00;;;;;;;17.08;11.55;;;3.80;99.90;;;;;;5089945;28;20028;-85
2021/01/06 05:27:38;;;;;;;18.70;12.23;;;3.80;99.90;;;;;;5085878;28;20120;-86
2021/01/06 05:30:19;;;;;;;17.23;11.57;;;3.80;99.90;;;;;;5084990;28;20549;-86
2021/01/06 05:32:45;;;;;;;17.38;11.93;;;3.80;99.90;;;;;;5090742;28;20024;-86
2021/01/06 05:35:19;;;;;;;18.13;12.07;;;3.80;99.90;;;;;;5085558;28;20107;-86
2021/01/06 05:37:51;;;;;;;19.33;12.18;;;3.80;99.90;;;;;;5088230;28;20103;-86
2021/01/06 05:40:16;;;;;;;17.92;12.15;;;3.80;99.90;;;;;;5089644;28;20024;-85
2021/01/06 05:42:50;;;;;;;17.52;11.50;;;3.70;99.90;;;;;;5085323;28;20016;-86
2021/01/06 05:45:19;;;;;;;16.17;11.73;;;3.70;99.90;;;;;;5091460;28;20042;-85
2021/01/06 05:47:58;;;;;;;17.13;11.07;;;3.70;99.90;;;;;;5086048;28;20049;-85
2021/01/06 05:50:30;;;;;;;16.53;10.80;;;3.80;99.90;;;;;;5083986;28;20048;-86
2021/01/06 05:53:40;;;;;;;16.05;10.65;;;3.70;99.90;;;;;;5046226;28;20044;-85
2021/01/06 05:56:17;;;;;;;17.73;10.88;;;3.70;99.90;;;;;;5023530;28;20039;-85
2021/01/06 05:58:53;;;;;;;17.63;11.50;;;3.70;99.90;;;;;;5047205;28;20384;-86
2021/01/06 06:01:52;;;;;;;14.25;9.82;;;3.70;99.90;;;;;;5047636;28;20016;-86
2021/01/06 06:04:28;;;;;;;14.23;10.40;;;3.70;99.90;;;;;;5052456;28;20020;-86
2021/01/06 06:07:26;;;;;;;13.70;8.93;;;3.70;99.90;;;;;;5046171;28;20097;-86
2021/01/06 06:10:00;;;;;;;14.25;10.05;;;3.70;99.90;;;;;;5049383;28;20025;-85
2021/01/06 06:12:46;;;;;;;13.70;8.88;;;3.70;99.90;;;;;;5046546;28;20032;-85
2021/01/06 06:15:34;;;;;;;15.70;10.07;;;3.80;99.90;;;;;;5044546;28;20111;-85
2021/01/06 06:18:09;;;;;;;13.73;8.63;;;3.80;99.90;;;;;;5070610;28;20074;-85
2021/01/06 06:21:11;;;;;;;13.60;9.15;;;3.70;99.90;;;;;;5048511;28;20017;-86
2021/01/06 06:24:10;;;;;;;15.02;9.68;;;3.80;99.90;;;;;;5048450;28;20021;-86
2021/01/06 06:27:17;;;;;;;17.10;10.88;;;3.80;99.90;;;;;;5051338;28;20031;-86
2021/01/06 06:29:53;;;;;;;15.70;9.82;;;3.80;99.90;;;;;;5021121;28;20057;-86
2021/01/06 06:32:18;;;;;;;14.40;9.68;;;3.80;99.90;;;;;;5047866;28;20044;-85
2021/01/06 06:34:44;;;;;;;16.52;10.30;;;3.80;99.90;;;;;;5050780;28;20460;-85
2021/01/06 06:37:16;;;;;;;16.10;10.80;;;3.80;99.90;;;;;;5069676;28;20460;-85
2021/01/06 06:39:47;;;;;;;18.20;10.63;;;3.80;99.90;;;;;;5049611;28;20013;-86
2021/01/06 06:42:25;;;;;;;15.27;9.55;;;3.70;99.90;;;;;;5047642;28;20028;-85
2021/01/06 06:44:57;;;;;;;14.43;9.30;;;3.70;99.90;;;;;;5046091;28;20171;-85
2021/01/06 06:47:46;;;;;;;11.75;7.40;;;3.70;99.90;;;;;;5033906;28;20108;-85
2021/01/06 06:50:33;;;;;;;14.82;9.65;;;3.70;99.90;;;;;;5033736;28;20124;-86
2021/01/06 06:53:24;;;;;;;15.57;10.35;;;3.70;99.90;;;;;;5050495;28;20032;-85
2021/01/06 06:56:02;;;;;;;18.00;11.00;;;3.70;99.90;;;;;;5036815;28;20125;-86
2021/01/06 06:58:44;;;;;;;13.45;8.57;;;3.70;99.90;;;;;;5038140;28;20108;-85
2021/01/06 07:01:13;;;;;;;10.73;7.90;;;3.70;99.90;;;;;;5038144;28;20120;-85
2021/01/06 07:03:49;;;;;;;12.82;7.40;;;3.70;99.90;;;;;;5054546;28;20021;-86
2021/01/06 07:06:14;;;;;;;11.00;7.00;;;3.70;99.90;;;;;;5044639;28;20469;-85
2021/01/06 07:08:53;;;;;;;10.60;7.38;;;3.70;99.90;;;;;;5047020;28;20020;-86
2021/01/06 07:11:29;;;;;;;10.18;7.13;;;3.80;99.90;;;;;;5068368;28;20116;-86
2021/01/06 07:14:06;;;;;;;10.80;6.85;;;3.70;99.90;;;;;;5054269;28;20021;-86
2021/01/06 07:16:56;;;;;;;8.48;5.75;;;3.80;99.90;;;;;;5054155;28;20540;-86
2021/01/06 07:19:36;;;;;;;9.98;6.35;;;3.80;99.90;;;;;;5063129;28;20052;-86
2021/01/06 07:22:14;;;;;;;9.80;5.78;;;3.80;99.90;;;;;;5057202;28;20028;-85
2021/01/06 07:24:40;;;;;;;8.68;6.15;;;3.80;99.90;;;;;;5055740;28;20078;-86
2021/01/06 07:27:06;;;;;;;7.70;5.45;;;3.80;99.90;;;;;;5055390;28;20020;-86
2021/01/06 07:29:48;;;;;;;9.98;5.80;;;3.80;99.90;;;;;;5048620;28;20487;-85
2021/01/06 07:32:15;;;;;;;11.38;6.13;;;3.90;99.90;;;;;;5048639;28;20105;-85
2021/01/06 07:34:51;;;;;;;9.20;6.05;;;3.80;99.90;;;;;;5046220;28;20380;-85
2021/01/06 07:37:42;;;;;;;8.40;5.75;;;3.80;99.90;;;;;;5054210;28;20116;-85
2021/01/06 07:40:33;;;;;;;11.52;7.10;;;3.90;99.90;;;;;;5073191;28;20438;-85
2021/01/06 07:43:08;;;;;;;10.75;6.97;;;3.80;99.90;;;;;;5043904;28;20439;-85
2021/01/06 07:46:02;;;;;;;10.13;6.20;;;3.80;99.90;;;;;;5054311;28;20028;-85
2021/01/06 07:48:48;;;;;;;9.45;6.05;;;3.80;99.90;;;;;;5072779;28;20017;-85
2021/01/06 07:51:49;;;;;;;8.30;5.65;;;3.80;99.90;;;;;;5060891;28;20094;-85
2021/01/06 07:54:26;;;;;;;10.90;6.93;;;3.80;99.90;;;;;;5084338;28;20017;-84
2021/01/06 07:57:17;;;;;;;9.93;6.60;;;3.70;99.90;;;;;;5083778;28;20020;-85
2021/01/06 07:59:52;;;;;;;9.70;6.38;;;3.80;99.90;;;;;;5084134;28;20433;-86
2021/01/06 08:02:45;;;;;;;10.68;6.68;;;3.70;99.90;;;;;;5086757;28;20027;-85
2021/01/06 08:05:34;;;;;;;8.98;6.05;;;3.80;99.90;;;;;;5084306;28;20134;-86
2021/01/06 08:08:14;;;;;;;11.45;6.88;;;3.80;99.90;;;;;;5087162;28;20027;-86
2021/01/06 08:10:41;;;;;;;9.63;6.10;;;3.80;99.90;;;;;;5083468;28;20025;-85
2021/01/06 08:13:32;;;;;;;14.90;7.25;;;3.70;99.90;;;;;;5086668;28;20032;-86
2021/01/06 08:16:06;;;;;;;10.93;6.25;;;3.80;99.90;;;;;;5081191;28;20027;-86
2021/01/06 08:18:54;;;;;;;10.88;7.28;;;3.70;99.90;;;;;;5099207;28;20027;-86
2021/01/06 08:21:28;;;;;;;9.00;6.18;;;3.70;99.90;;;;;;5083420;28;20020;-86
2021/01/06 08:24:33;;;;;;;11.25;6.88;;;3.70;99.90;;;;;;5082495;28;20044;-86
2021/01/06 08:27:01;;;;;;;10.63;5.97;;;3.70;99.90;;;;;;5080423;28;20047;-86
2021/01/06 08:29:31;;;;;;;11.65;7.10;;;3.70;99.90;;;;;;5081574;28;20094;-87
2021/01/06 08:31:59;;;;;;;13.23;7.22;;;3.70;99.90;;;;;;5085508;28;20031;-86
2021/01/06 08:34:32;;;;;;;7.88;5.85;;;3.70;99.90;;;;;;5075933;28;20081;-86
2021/01/06 08:37:01;;;;;;;10.23;6.25;;;3.70;99.90;;;;;;5086683;28;20110;-86
2021/01/06 08:39:29;;;;;;;11.68;6.53;;;3.80;99.90;;;;;;5081134;28;20107;-85
2021/01/06 08:41:57;;;;;;;11.27;6.78;;;3.80;99.90;;;;;;5079721;28;20387;-87
2021/01/06 08:44:51;;;;;;;11.65;7.22;;;3.80;99.90;;;;;;5083315;28;20387;-86
2021/01/06 08:47:37;;;;;;;10.25;6.60;;;3.80;99.90;;;;;;5082155;28;20127;-86
2021/01/06 08:50:15;;;;;;;10.02;7.07;;;3.80;99.90;;;;;;5087794;28;20066;-85
2021/01/06 08:52:41;;;;;;;9.48;6.10;;;3.80;99.90;;;;;;5086105;28;20118;-86
2021/01/06 08:55:28;;;;;;;12.43;7.22;;;3.80;99.90;;;;;;5112596;28;20024;-86
2021/01/06 08:58:13;;;;;;;9.77;6.05;;;3.80;99.90;;;;;;5113928;28;20024;-86
2021/01/06 09:01:00;;;;;;;11.05;7.65;;;3.80;99.90;;;;;;5114169;28;20090;-85
2021/01/06 09:03:55;;;;;;;9.90;6.45;;;3.80;99.90;;;;;;5112686;28;20055;-86
2021/01/06 09:06:22;;;;;;;9.60;6.20;;;3.80;99.90;;;;;;5083451;28;20071;-86
2021/01/06 09:08:59;;;;;;;8.77;5.38;;;3.90;99.90;;;;;;5071993;28;20035;-86
2021/01/06 09:11:29;;;;;;;8.45;5.65;;;3.90;99.90;;;;;;5072069;28;20021;-85
2021/01/06 09:14:16;;;;;;;9.60;6.28;;;3.90;99.90;;;;;;5071712;28;20032;-85
2021/01/06 09:16:52;;;;;;;11.70;6.30;;;3.90;99.90;;;;;;5071641;28;20024;-85
2021/01/06 09:19:43;;;;;;;10.13;6.53;;;3.90;99.90;;;;;;5071924;28;20077;-85
2021/01/06 09:22:11;;;;;;;10.55;7.13;;;3.90;99.90;;;;;;5071986;28;20119;-87
2021/01/06 09:24:39;;;;;;;13.93;8.77;;;3.90;99.90;;;;;;5077845;28;20028;-86
2021/01/06 09:27:32;;;;;;;11.93;7.63;;;3.80;99.90;;;;;;5082327;28;20062;-86
2021/01/06 09:30:00;;;;;;;11.85;6.78;;;3.90;99.90;;;;;;5098684;28;20090;-86
2021/01/06 09:32:41;;;;;;;11.70;7.03;;;3.90;99.90;;;;;;5074720;28;20090;-86
2021/01/06 09:35:13;;;;;;;12.77;7.88;;;3.90;99.90;;;;;;5082307;28;20128;-87
2021/01/06 09:37:49;;;;;;;14.68;9.05;;;3.80;99.90;;;;;;5087379;28;20117;-86
2021/01/06 09:40:20;;;;;;;12.30;8.48;;;3.80;99.90;;;;;;5091565;28;20119;-86
2021/01/06 09:42:54;;;;;;;15.73;9.55;;;3.80;99.90;;;;;;5091700;28;20024;-86
2021/01/06 09:45:23;;;;;;;14.10;8.98;;;3.80;99.90;;;;;;5092300;28;20020;-86
2021/01/06 09:47:51;;;;;;;13.90;8.80;;;3.70;99.90;;;;;;5091731;28;20036;-87
2021/01/06 09:50:36;;;;;;;13.43;8.68;;;3.70;99.90;;;;;;5083838;28;20024;-88
2021/01/06 09:53:05;;;;;;;12.10;7.55;;;3.70;99.90;;;;;;5039436;28;20033;-88
2021/01/06 09:55:33;;;;;;;14.20;8.47;;;3.70;99.90;;;;;;5052781;28;20090;-89
2021/01/06 09:58:26;;;;;;;12.43;7.65;;;3.70;99.90;;;;;;5055958;28;20259;-88
2021/01/06 10:01:16;;;;;;;13.52;7.68;;;3.80;99.90;;;;;;5045861;28;20040;-88
2021/01/06 10:03:42;;;;;;;;;;;3.80;99.90;;;;;;5054593;28;20120;-87
2021/01/06 10:06:26;;;;;;;13.88;8.85;;;3.80;99.90;;;;;;5048441;28;19905;-88
2021/01/06 10:08:59;;;;;;;12.07;8.00;;;3.80;99.90;;;;;;5035666;28;20431;-86
2021/01/06 10:11:56;;;;;;;12.10;8.18;;;3.80;99.90;;;;;;5041596;28;20017;-86
2021/01/06 10:14:55;;;;;;;11.82;8.43;;;3.90;99.90;;;;;;5034513;28;20055;-85
2021/01/06 10:17:30;;;;;;;13.27;9.02;;;3.90;99.90;;;;;;5070036;28;20025;-85
2021/01/06 10:20:24;;;;;;;11.05;7.55;;;3.90;99.90;;;;;;5046750;28;20043;-85
2021/01/06 10:22:54;;;;;;;14.77;8.38;;;3.90;99.90;;;;;;5040742;28;20514;-86
2021/01/06 10:25:28;;;;;;;11.57;7.28;;;3.90;99.90;;;;;;5045276;28;20024;-84
2021/01/06 10:28:10;;;;;;;9.85;5.75;;;4.00;99.90;;;;;;5044575;28;20388;-85
2021/01/06 10:30:36;;;;;;;8.75;5.53;;;4.00;99.90;;;;;;5049022;28;20024;-85
2021/01/06 10:33:17;;;;;;;13.40;7.13;;;4.10;99.90;;;;;;5046987;28;20089;-87
2021/01/06 10:35:42;;;;;;;11.02;7.00;;;4.10;99.90;;;;;;5046916;28;20021;-86
2021/01/06 10:38:43;;;;;;;9.57;6.53;;;4.10;99.90;;;;;;5057193;28;20027;-86
2021/01/06 10:41:31;;;;;;;12.13;8.07;;;4.20;99.90;;;;;;5065600;28;20108;-86
2021/01/06 10:43:59;;;;;;;9.45;6.80;;;4.20;99.90;;;;;;5066550;28;20025;-85
2021/01/06 10:46:49;;;;;;;11.10;7.30;;;4.20;99.90;;;;;;5038223;28;20083;-86
2021/01/06 10:49:20;;;;;;;16.13;6.75;;;4.20;99.90;;;;;;5038135;28;20062;-85
2021/01/06 10:52:06;;;;;;;11.82;7.35;;;4.20;99.90;;;;;;5062411;28;20037;-85
2021/01/06 10:54:49;;;;;;;10.70;7.82;;;4.30;99.90;;;;;;5038865;28;20044;-85
2021/01/06 10:57:15;;;;;;;11.10;7.15;;;4.30;99.90;;;;;;5037071;28;20553;-85
2021/01/06 11:00:00;;;;;;;10.65;6.80;;;4.30;99.90;;;;;;5035848;28;20025;-86
2021/01/06 11:02:46;;;;;;;8.57;6.38;;;4.30;99.90;;;;;;5040867;28;20025;-84
2021/01/06 11:05:27;;;;;;;10.88;6.63;;;4.40;99.90;;;;;;5049864;28;20171;-84
2021/01/06 11:08:41;;;;;;;10.45;6.72;;;4.40;99.90;;;;;;5037800;28;20025;-84
2021/01/06 11:11:19;;;;;;;10.05;6.03;;;4.40;99.80;;;;;;5045686;28;20056;-84
2021/01/06 11:13:50;;;;;;;11.45;6.95;;;4.40;99.90;;;;;;5046663;28;20033;-84
2021/01/06 11:16:21;;;;;;;12.02;7.53;;;4.40;99.90;;;;;;5054264;28;20120;-84
2021/01/06 11:18:48;;;;;;;9.98;7.07;;;4.40;99.80;;;;;;5047692;28;20067;-84
2021/01/06 11:21:23;;;;;;;10.40;6.88;;;4.40;99.80;;;;;;5062041;28;20012;-83
2021/01/06 11:23:59;;;;;;;9.77;6.20;;;4.40;99.80;;;;;;5047220;28;20025;-84
2021/01/06 11:26:31;;;;;;;11.57;7.07;;;4.50;99.80;;;;;;5064209;28;20109;-84
2021/01/06 11:29:18;;;;;;;10.45;8.13;;;4.50;99.80;;;;;;5054342;28;20028;-84
2021/01/06 11:31:50;;;;;;;17.23;8.85;;;4.40;99.50;;;;;;5053456;28;20095;-84
2021/01/06 11:34:15;;;;;;;11.68;8.15;;;4.40;99.20;;;;;;5063090;28;20028;-84
2021/01/06 11:36:53;;;;;;;10.65;6.47;;;4.30;98.90;;;;;;5073118;28;20500;-84
2021/01/06 11:39:28;;;;;;;10.30;6.38;;;4.30;99.00;;;;;;5057253;28;20422;-84
2021/01/06 11:42:05;;;;;;;12.27;6.43;;;4.40;99.10;;;;;;5056604;28;20029;-84
2021/01/06 11:44:46;;;;;;;9.60;6.35;;;4.40;99.10;;;;;;5056956;28;20546;-83
2021/01/06 11:47:32;;;;;;;8.05;5.03;;;4.40;99.20;;;;;;5075009;28;20135;-84
2021/01/06 11:50:03;;;;;;;9.15;5.30;;;4.40;99.20;;;;;;5056851;28;20111;-84
2021/01/06 11:52:36;;;;;;;8.48;5.22;;;4.40;99.30;;;;;;5081028;28;20045;-84
2021/01/06 11:55:21;;;;;;;8.35;5.55;;;4.40;99.30;;;;;;5077110;28;20059;-84
2021/01/06 11:58:16;;;;;;;6.88;5.15;;;4.50;99.30;;;;;;5074784;28;20071;-84
2021/01/06 12:00:42;;;;;;;7.93;5.25;;;4.50;99.20;;;;;;5073407;28;20112;-84
2021/01/06 12:03:07;;;;;;;8.40;5.57;;;4.50;99.20;;;;;;5073502;28;20119;-84
2021/01/06 12:05:36;;;;;;;7.88;5.00;;;4.50;99.30;;;;;;5077033;28;20016;-84
2021/01/06 12:08:22;;;;;;;9.20;5.60;;;4.50;99.30;;;;;;5075210;28;20203;-87
2021/01/06 12:11:00;;;;;;;7.95;5.47;;;4.60;99.30;;;;;;5081613;28;20028;-84
2021/01/06 12:14:14;;;;;;;7.95;5.32;;;4.60;99.20;;;;;;5089082;28;20473;-86
2021/01/06 12:17:02;;;;;;;7.97;5.20;;;4.60;99.20;;;;;;5081594;28;20020;-88
2021/01/06 12:19:55;;;;;;;7.82;5.13;;;4.60;99.20;;;;;;5085067;28;20023;-85
2021/01/06 12:22:22;;;;;;;7.57;5.13;;;4.60;99.30;;;;;;5076752;28;20032;-86
2021/01/06 12:24:52;;;;;;;9.18;4.80;;;4.50;99.40;;;;;;5075085;28;20032;-86
2021/01/06 12:27:40;;;;;;;7.05;4.55;;;4.60;99.40;;;;;;5084935;28;20027;-88
2021/01/06 12:30:35;;;;;;;8.88;4.32;;;4.60;99.40;;;;;;5092136;28;20059;-86
2021/01/06 12:33:34;;;;;;;7.45;4.63;;;4.70;99.40;;;;;;5079542;28;20032;-86
2021/01/06 12:36:25;;;;;;;6.78;4.22;;;4.60;99.30;;;;;;5082722;28;20049;-87
2021/01/06 12:38:54;;;;;;;6.55;4.15;;;4.70;99.30;;;;;;5085108;28;20039;-87
2021/01/06 12:41:23;;;;;;;7.22;4.30;;;4.60;99.40;;;;;;5085186;28;20027;-88
2021/01/06 12:43:58;;;;;;;8.55;4.70;;;4.60;99.40;;;;;;5083757;28;20048;-87
2021/01/06 12:46:35;;;;;;;6.65;4.30;;;4.60;99.50;;;;;;5089896;28;20020;-87
2021/01/06 12:49:10;;;;;;;7.72;5.05;;;4.60;99.50;;;;;;5078265;28;20041;-87
2021/01/06 12:51:40;;;;;;;8.15;4.75;;;4.60;99.50;;;;;;5080305;28;20055;-86
2021/01/06 12:54:18;;;;;;;6.88;4.28;;;4.60;99.40;;;;;;5084898;28;20019;-86
2021/01/06 12:56:50;;;;;;;6.68;3.75;;;4.70;99.40;;;;;;5076857;28;20021;-87
2021/01/06 12:59:20;;;;;;;6.57;4.70;;;4.70;99.40;;;;;;5082967;28;20077;-87
2021/01/06 13:01:58;;;;;;;7.85;4.75;;;4.70;99.50;;;;;;5088789;28;20028;-87
2021/01/06 13:04:34;;;;;;;8.23;4.68;;;4.80;99.30;;;;;;5077097;28;20054;-84
2021/01/06 13:07:12;;;;;;;6.07;4.00;;;4.80;99.20;;;;;;5082188;28;20542;-86
2021/01/06 13:09:45;;;;;;;8.68;5.18;;;4.80;99.20;;;;;;5084595;28;20036;-86
2021/01/06 13:12:19;;;;;;;5.78;3.80;;;4.80;99.10;;;;;;5078282;28;20036;-86
2021/01/06 13:14:51;;;;;;;5.80;4.10;;;4.80;99.00;;;;;;5088557;28;20523;-86
2021/01/06 13:17:30;;;;;;;7.40;4.70;;;4.80;98.90;;;;;;5085483;28;20115;-85
2021/01/06 13:19:58;;;;;;;9.80;5.53;;;4.80;98.80;;;;;;5085304;28;20058;-85
2021/01/06 13:22:42;;;;;;;11.27;6.88;;;4.80;98.80;;;;;;5086414;28;20027;-85
2021/01/06 13:25:19;;;;;;;9.25;5.40;;;4.70;98.50;;;;;;5077814;28;20502;-89
2021/01/06 13:28:01;;;;;;;7.82;4.85;;;4.70;98.70;;;;;;5075773;28;20024;-90
2021/01/06 13:30:29;;;;;;;7.93;3.80;;;4.70;98.70;;;;;;5071724;28;20056;-89